createdAt,value
2018-07-11T00:03:47.041Z,17.50
2018-07-11T00:08:50.046Z,17.30
2018-07-11T00:13:53.140Z,17.30
2018-07-11T00:18:56.270Z,17.20
2018-07-11T00:23:59.337Z,17.20
2018-07-11T00:29:02.363Z,17.10
2018-07-11T00:34:05.458Z,17.10
2018-07-11T00:39:08.456Z,17.00
2018-07-11T00:44:11.462Z,17.10
2018-07-11T00:49:14.460Z,17.10
2018-07-11T00:54:17.620Z,17.10
2018-07-11T00:59:23.196Z,17.10
2018-07-11T01:09:30.279Z,16.90
2018-07-11T01:14:33.588Z,17.00
2018-07-11T01:19:37.318Z,16.90
2018-07-11T01:24:40.331Z,16.80
2018-07-11T01:29:43.392Z,16.70
2018-07-11T01:34:46.400Z,16.80
2018-07-11T01:39:49.415Z,17.00
2018-07-11T01:44:52.511Z,17.20
2018-07-11T01:49:55.538Z,17.30
2018-07-11T01:54:58.614Z,17.40
2018-07-11T02:00:01.626Z,17.30
2018-07-11T02:05:04.756Z,17.10
2018-07-11T02:10:07.947Z,17.10
2018-07-11T02:15:11.656Z,17.20
2018-07-11T02:20:16.604Z,17.10
2018-07-11T02:25:20.142Z,17.10
2018-07-11T02:30:23.262Z,17.00
2018-07-11T02:35:26.256Z,16.90
2018-07-11T02:40:29.327Z,16.80
2018-07-11T02:45:32.359Z,16.80
2018-07-11T02:50:35.381Z,16.80
2018-07-11T02:55:38.442Z,16.90
2018-07-11T03:00:41.542Z,16.80
2018-07-11T03:05:44.543Z,16.80
2018-07-11T03:10:47.754Z,16.80
2018-07-11T03:15:50.756Z,16.80
2018-07-11T03:20:53.782Z,16.80
2018-07-11T03:25:56.787Z,16.80
2018-07-11T03:30:59.799Z,16.80
2018-07-11T03:36:02.803Z,16.90
2018-07-11T03:41:05.797Z,16.90
2018-07-11T03:46:08.811Z,16.90
2018-07-11T03:51:11.803Z,16.80
2018-07-11T03:56:14.829Z,16.70
2018-07-11T04:06:20.788Z,16.80
2018-07-11T04:11:23.807Z,16.90
2018-07-11T04:16:26.881Z,16.90
2018-07-11T04:21:29.909Z,17.00
2018-07-11T04:26:32.900Z,17.00
2018-07-11T04:31:36.202Z,17.10
2018-07-11T04:36:39.371Z,17.20
2018-07-11T04:41:42.391Z,17.30
2018-07-11T04:46:45.418Z,17.30
2018-07-11T04:51:48.464Z,17.40
2018-07-11T04:56:51.683Z,17.50
2018-07-11T05:01:54.703Z,17.50
2018-07-11T05:06:57.835Z,17.30
2018-07-11T05:12:00.835Z,17.20
2018-07-11T05:17:03.943Z,17.30
2018-07-11T05:22:06.943Z,17.30
2018-07-11T05:27:09.963Z,17.20
2018-07-11T05:32:12.991Z,17.20
2018-07-11T05:37:16.148Z,17.40
2018-07-11T05:42:19.198Z,17.40
2018-07-11T05:47:22.200Z,17.40
2018-07-11T05:52:25.287Z,17.40
2018-07-11T05:57:28.610Z,17.30
2018-07-11T06:02:31.979Z,17.60
2018-07-11T06:07:35.003Z,17.70
2018-07-11T06:12:38.051Z,17.90
2018-07-11T06:17:41.077Z,17.70
2018-07-11T06:22:44.108Z,17.60
2018-07-11T06:27:47.153Z,17.70
2018-07-11T06:32:50.179Z,17.90
2018-07-11T06:37:53.289Z,18.10
2018-07-11T06:42:56.604Z,18.20
2018-07-11T06:47:59.690Z,18.10
2018-07-11T06:53:02.611Z,18.50
2018-07-11T06:58:05.706Z,18.50
2018-07-11T07:03:08.729Z,18.50
2018-07-11T07:08:11.848Z,18.60
2018-07-11T07:13:14.899Z,18.70
2018-07-11T07:23:20.861Z,19.20
2018-07-11T07:28:23.951Z,19.20
2018-07-11T07:33:26.979Z,19.10
2018-07-11T07:38:30.296Z,19.40
2018-07-11T07:43:33.366Z,19.90
2018-07-11T07:48:36.408Z,19.70
2018-07-11T07:53:39.497Z,19.70
2018-07-11T07:58:42.540Z,19.80
2018-07-11T08:03:45.607Z,19.60
2018-07-11T08:08:48.634Z,19.90
2018-07-11T08:18:54.900Z,21.00
2018-07-11T08:24:09.810Z,21.00
2018-07-11T08:29:37.783Z,20.80
2018-07-11T08:34:52.646Z,20.60
2018-07-11T08:42:09.356Z,20.90
2018-07-11T08:47:27.144Z,20.80
2018-07-11T08:52:43.171Z,20.90
2018-07-11T08:57:53.237Z,21.50
2018-07-11T09:04:11.892Z,22.30
2018-07-11T09:09:28.399Z,22.80
2018-07-11T09:16:51.860Z,23.20
2018-07-11T09:22:07.092Z,23.50
2018-07-11T09:27:10.749Z,23.60
2018-07-11T09:32:14.223Z,23.60
2018-07-11T09:37:17.224Z,23.80
2018-07-11T09:42:20.227Z,23.60
2018-07-11T09:47:27.033Z,23.30
2018-07-11T09:52:30.430Z,23.70
2018-07-11T09:57:34.408Z,23.40
2018-07-11T10:02:37.407Z,23.20
2018-07-11T10:07:40.419Z,24.30
2018-07-11T10:12:43.457Z,24.50
2018-07-11T10:17:46.599Z,24.70
2018-07-11T10:22:49.651Z,24.60
2018-07-11T10:28:04.223Z,24.80
2018-07-11T10:33:07.234Z,25.00
2018-07-11T10:38:11.094Z,25.70
2018-07-11T10:43:14.148Z,25.30
2018-07-11T10:48:17.172Z,25.00
2018-07-11T10:53:20.267Z,24.00
2018-07-11T10:58:23.290Z,23.30
2018-07-11T11:03:28.527Z,23.60
2018-07-11T11:08:31.951Z,24.60
2018-07-11T11:13:34.946Z,24.80
2018-07-11T11:18:38.427Z,25.10
2018-07-11T11:23:41.573Z,25.20
2018-07-11T11:28:44.843Z,25.70
2018-07-11T11:33:47.878Z,26.50
2018-07-11T11:38:50.900Z,26.00
2018-07-11T11:43:53.936Z,26.10
2018-07-11T11:48:56.963Z,26.70
2018-07-11T11:54:00.097Z,25.90
2018-07-11T11:59:03.119Z,25.60
2018-07-11T12:04:06.104Z,25.30
2018-07-11T12:09:09.211Z,25.20
2018-07-11T12:14:12.268Z,24.90
2018-07-11T12:19:15.353Z,24.40
2018-07-11T12:24:19.940Z,24.20
2018-07-11T12:29:22.942Z,24.20
2018-07-11T12:34:25.959Z,24.00
2018-07-11T12:39:29.175Z,24.30
2018-07-11T12:44:32.294Z,24.40
2018-07-11T12:49:35.351Z,24.70
2018-07-11T12:54:38.491Z,24.90
2018-07-11T12:59:41.550Z,25.20
2018-07-11T13:04:44.592Z,26.10
2018-07-11T13:09:47.607Z,26.30
2018-07-11T13:14:50.671Z,26.00
2018-07-11T13:19:53.680Z,26.70
2018-07-11T13:24:56.839Z,26.30
2018-07-11T13:29:59.870Z,25.90
2018-07-11T13:35:03.247Z,25.60
2018-07-11T13:40:06.437Z,25.60
2018-07-11T13:45:09.436Z,25.40
2018-07-11T13:50:12.945Z,24.20
2018-07-11T13:55:16.025Z,23.80
2018-07-11T14:00:19.296Z,23.80
2018-07-11T14:05:22.596Z,23.50
2018-07-11T14:10:25.590Z,23.30
2018-07-11T14:15:28.579Z,23.30
2018-07-11T14:20:31.996Z,23.30
2018-07-11T14:25:36.558Z,24.50
2018-07-11T14:30:40.019Z,25.60
2018-07-11T14:35:43.446Z,26.60
2018-07-11T14:40:46.563Z,27.00
2018-07-11T14:45:49.683Z,27.10
2018-07-11T14:50:52.603Z,27.00
2018-07-11T14:55:55.643Z,26.90
2018-07-11T15:00:58.688Z,26.10
2018-07-11T15:06:01.740Z,25.00
2018-07-11T15:11:04.780Z,24.40
2018-07-11T15:16:07.805Z,24.20
2018-07-11T15:21:11.315Z,24.40
2018-07-11T15:26:14.334Z,25.00
2018-07-11T15:31:17.507Z,25.90
2018-07-11T15:36:20.595Z,26.00
2018-07-11T15:41:23.629Z,25.60
2018-07-11T15:46:26.715Z,25.10
2018-07-11T15:51:29.735Z,24.60
2018-07-11T15:56:33.863Z,23.90
2018-07-11T16:01:53.852Z,23.50
2018-07-11T16:07:01.174Z,23.00
2018-07-11T16:12:04.220Z,22.60
2018-07-11T16:17:07.229Z,22.40
2018-07-11T16:22:10.253Z,23.00
2018-07-11T16:27:13.311Z,23.80
2018-07-11T16:32:16.343Z,24.30
2018-07-11T16:37:19.584Z,24.60
2018-07-11T16:42:22.603Z,25.10
2018-07-11T16:47:26.807Z,25.20
2018-07-11T16:52:29.838Z,25.30
2018-07-11T16:57:40.846Z,25.70
2018-07-11T17:07:51.877Z,25.90
2018-07-11T17:13:27.419Z,25.70
2018-07-11T17:18:38.951Z,25.90
2018-07-11T17:23:47.323Z,25.90
2018-07-11T17:28:50.475Z,25.30
2018-07-11T17:38:56.302Z,25.00
2018-07-11T17:44:02.415Z,24.80
2018-07-11T17:49:14.829Z,24.50
2018-07-11T17:54:17.943Z,24.70
2018-07-11T17:59:31.193Z,24.80
2018-07-11T18:04:40.539Z,24.40
2018-07-11T18:09:51.840Z,24.10
2018-07-11T18:15:30.286Z,24.00
2018-07-11T18:20:42.371Z,24.00
2018-07-11T18:25:53.495Z,23.70
2018-07-11T18:31:10.024Z,23.30
2018-07-11T18:36:53.747Z,23.30
2018-07-11T18:42:08.210Z,23.30
2018-07-11T18:47:19.106Z,23.20
2018-07-11T18:52:29.579Z,23.10
2018-07-11T18:57:42.081Z,23.00
2018-07-11T19:02:55.355Z,22.80
2018-07-11T19:08:09.698Z,22.60
2018-07-11T19:13:24.399Z,22.50
2018-07-11T19:18:37.130Z,22.30
2018-07-11T19:23:52.729Z,22.30
2018-07-11T19:30:11.632Z,22.30
2018-07-11T19:35:22.592Z,22.20
2018-07-11T19:40:37.620Z,22.10
2018-07-11T19:45:49.433Z,22.10
2018-07-11T19:51:06.959Z,21.80
2018-07-11T19:56:18.770Z,21.30
2018-07-11T20:01:21.819Z,20.70
2018-07-11T20:06:24.834Z,20.30
2018-07-11T20:11:28.287Z,20.10
2018-07-11T20:16:31.516Z,19.80
2018-07-11T20:21:34.580Z,19.70
2018-07-11T20:26:37.632Z,19.50
2018-07-11T20:31:40.704Z,19.30
2018-07-11T20:36:43.691Z,19.10
2018-07-11T20:41:46.700Z,18.80
2018-07-11T20:46:49.737Z,18.90
2018-07-11T20:51:52.730Z,18.90
2018-07-11T20:56:55.714Z,18.80
2018-07-11T21:02:10.257Z,18.60
2018-07-11T21:10:35.899Z,18.40
2018-07-11T21:17:56.860Z,18.10
2018-07-11T21:23:00.672Z,17.90
2018-07-11T21:28:03.764Z,18.00
2018-07-11T21:33:06.883Z,17.90
2018-07-11T21:38:09.892Z,18.10
2018-07-11T21:47:04.939Z,18.30
2018-07-11T21:52:07.950Z,18.20
2018-07-11T21:57:10.957Z,18.20
2018-07-11T22:02:13.963Z,18.20
2018-07-11T22:07:16.972Z,18.20
2018-07-11T22:12:19.976Z,18.10
2018-07-11T22:17:34.479Z,17.90
2018-07-11T22:22:36.635Z,17.70
2018-07-11T22:27:38.796Z,17.50
2018-07-11T22:32:40.951Z,17.50
2018-07-11T22:37:43.250Z,17.60
2018-07-11T22:42:45.436Z,17.60
2018-07-11T22:47:47.551Z,17.60
2018-07-11T22:52:49.703Z,17.70
2018-07-11T22:57:52.218Z,17.60
2018-07-11T23:02:54.367Z,17.70
2018-07-11T23:07:56.540Z,17.80
2018-07-11T23:12:58.685Z,17.80
2018-07-11T23:18:00.859Z,17.80
2018-07-11T23:23:03.029Z,17.70
2018-07-11T23:28:05.177Z,17.60
2018-07-11T23:33:07.328Z,17.70
2018-07-11T23:38:09.490Z,17.70
2018-07-11T23:43:11.660Z,17.70
2018-07-11T23:48:14.049Z,17.70
2018-07-11T23:53:16.214Z,17.70
2018-07-11T23:58:18.366Z,17.60
